Nenana Municipal Airport Nenana US
ICAO: PANN
IATA:
Category: Medium
Scheduled Services:

Elevation: 362 ft
TransAlt. 18000 ft.

Airport Communications:
FAIRBANKS APP/DEP:125.35
ASOS:125.2
CTAF:122.1
FAIRBANKS RDO:122.5
TWEB:115.8

PANN Zoom In..

Runways:

(A) RW 04L length 4600 ft width 100 ft
---- / hdg 38

(B) RW 04R length 2520 ft width 60 ft
---- / hdg 38

(C) RW 22L length 2520 ft width 60 ft
---- / hdg 218

(D) RW 22R length 4600 ft width 100 ft
---- / hdg 218

Location; PANN
Day. 17 / Time. 06.53 Zulu
* Altimeter: 29.90
* Temperature: 12° c. 53.6°f.
* Wind from: 220° Speed 05 kn.
Dewpoint: 08° c.
Visibility: 10 Statute Miles.
Clouds: Scattered 4900 ft.
Clouds: Broken 5500 ft.
Clouds: Overcast 1000 ft.

PANN 170653Z AUTO 22005KT 10SM SCT049 BKN055 OVC100 12/08 A2990 RMK AO2 SLP130 T01220078 TSNO


Wind From 220°
Speed 05 kn.

 
 
jpsmedia.com for Web Design worldairports.se 2018   terms of use